sensor_id;sensor_type;location;lat;lon;timestamp;P1;durP1;ratioP1;P2;durP2;ratioP2
7191;SDS011;3637;51.494;11.958;2022-09-16T00:00:41;1.33;;;1.13;;
7191;SDS011;3637;51.494;11.958;2022-09-16T00:03:44;1.73;;;1.10;;
7191;SDS011;3637;51.494;11.958;2022-09-16T00:06:46;1.40;;;1.30;;
7191;SDS011;3637;51.494;11.958;2022-09-16T00:09:49;1.30;;;1.20;;
7191;SDS011;3637;51.494;11.958;2022-09-16T00:12:51;2.60;;;1.27;;
7191;SDS011;3637;51.494;11.958;2022-09-16T00:15:53;2.87;;;1.20;;
7191;SDS011;3637;51.494;11.958;2022-09-16T00:18:55;1.77;;;1.10;;
7191;SDS011;3637;51.494;11.958;2022-09-16T00:21:58;2.63;;;1.43;;
7191;SDS011;3637;51.494;11.958;2022-09-16T00:25:01;1.10;;;1.10;;
7191;SDS011;3637;51.494;11.958;2022-09-16T00:28:03;1.30;;;1.20;;
7191;SDS011;3637;51.494;11.958;2022-09-16T00:31:05;1.20;;;1.10;;
7191;SDS011;3637;51.494;11.958;2022-09-16T00:34:07;1.60;;;1.20;;
7191;SDS011;3637;51.494;11.958;2022-09-16T00:37:09;8.87;;;1.50;;
7191;SDS011;3637;51.494;11.958;2022-09-16T00:40:12;1.57;;;1.03;;
7191;SDS011;3637;51.494;11.958;2022-09-16T00:43:14;1.70;;;1.30;;
7191;SDS011;3637;51.494;11.958;2022-09-16T00:46:17;1.70;;;1.40;;
7191;SDS011;3637;51.494;11.958;2022-09-16T00:49:24;1.30;;;1.20;;
7191;SDS011;3637;51.494;11.958;2022-09-16T00:52:28;1.20;;;1.10;;
7191;SDS011;3637;51.494;11.958;2022-09-16T00:55:34;2.37;;;1.40;;
7191;SDS011;3637;51.494;11.958;2022-09-16T00:58:39;2.73;;;1.50;;
7191;SDS011;3637;51.494;11.958;2022-09-16T01:01:46;5.80;;;1.60;;
7191;SDS011;3637;51.494;11.958;2022-09-16T01:04:50;2.90;;;1.60;;
7191;SDS011;3637;51.494;11.958;2022-09-16T01:07:54;1.50;;;1.37;;
7191;SDS011;3637;51.494;11.958;2022-09-16T01:10:58;1.57;;;1.43;;
7191;SDS011;3637;51.494;11.958;2022-09-16T01:14:00;1.43;;;1.33;;
7191;SDS011;3637;51.494;11.958;2022-09-16T01:17:19;1.27;;;1.17;;
7191;SDS011;3637;51.494;11.958;2022-09-16T01:24:30;1.47;;;1.27;;
7191;SDS011;3637;51.494;11.958;2022-09-16T01:27:51;1.93;;;1.50;;
7191;SDS011;3637;51.494;11.958;2022-09-16T01:31:13;1.30;;;1.20;;
7191;SDS011;3637;51.494;11.958;2022-09-16T01:34:20;2.07;;;1.40;;
7191;SDS011;3637;51.494;11.958;2022-09-16T01:37:32;1.10;;;1.00;;
7191;SDS011;3637;51.494;11.958;2022-09-16T01:40:51;2.30;;;1.40;;
7191;SDS011;3637;51.494;11.958;2022-09-16T01:43:58;4.00;;;1.60;;
7191;SDS011;3637;51.494;11.958;2022-09-16T01:47:09;0.90;;;0.90;;
7191;SDS011;3637;51.494;11.958;2022-09-16T01:50:18;1.33;;;1.23;;
7191;SDS011;3637;51.494;11.958;2022-09-16T01:53:22;2.37;;;1.23;;
7191;SDS011;3637;51.494;11.958;2022-09-16T01:56:30;1.40;;;1.20;;
7191;SDS011;3637;51.494;11.958;2022-09-16T01:59:38;1.47;;;1.20;;
7191;SDS011;3637;51.494;11.958;2022-09-16T02:02:46;1.53;;;1.43;;
7191;SDS011;3637;51.494;11.958;2022-09-16T02:05:53;1.30;;;1.20;;
7191;SDS011;3637;51.494;11.958;2022-09-16T02:08:58;2.13;;;1.40;;
7191;SDS011;3637;51.494;11.958;2022-09-16T02:12:05;1.90;;;1.10;;
7191;SDS011;3637;51.494;11.958;2022-09-16T02:15:12;0.83;;;0.83;;
7191;SDS011;3637;51.494;11.958;2022-09-16T02:18:23;1.67;;;1.30;;
7191;SDS011;3637;51.494;11.958;2022-09-16T02:21:29;2.30;;;1.30;;
7191;SDS011;3637;51.494;11.958;2022-09-16T02:24:34;0.97;;;0.97;;
7191;SDS011;3637;51.494;11.958;2022-09-16T02:27:40;1.47;;;1.20;;
7191;SDS011;3637;51.494;11.958;2022-09-16T02:30:44;1.97;;;1.23;;
7191;SDS011;3637;51.494;11.958;2022-09-16T02:33:52;2.30;;;1.30;;
7191;SDS011;3637;51.494;11.958;2022-09-16T02:36:59;2.07;;;1.43;;
7191;SDS011;3637;51.494;11.958;2022-09-16T02:40:09;1.27;;;1.10;;
7191;SDS011;3637;51.494;11.958;2022-09-16T02:43:13;2.20;;;1.37;;
7191;SDS011;3637;51.494;11.958;2022-09-16T02:46:18;2.17;;;1.40;;
7191;SDS011;3637;51.494;11.958;2022-09-16T02:49:28;1.07;;;1.07;;
7191;SDS011;3637;51.494;11.958;2022-09-16T02:52:42;1.03;;;1.00;;
7191;SDS011;3637;51.494;11.958;2022-09-16T02:55:50;1.43;;;1.20;;
7191;SDS011;3637;51.494;11.958;2022-09-16T02:58:56;1.30;;;1.20;;
7191;SDS011;3637;51.494;11.958;2022-09-16T03:01:59;1.37;;;1.27;;
7191;SDS011;3637;51.494;11.958;2022-09-16T03:05:03;1.50;;;1.40;;
7191;SDS011;3637;51.494;11.958;2022-09-16T03:08:06;1.33;;;1.07;;
7191;SDS011;3637;51.494;11.958;2022-09-16T03:11:08;1.70;;;1.30;;
7191;SDS011;3637;51.494;11.958;2022-09-16T03:14:28;1.17;;;1.17;;
7191;SDS011;3637;51.494;11.958;2022-09-16T03:17:46;2.53;;;1.30;;
7191;SDS011;3637;51.494;11.958;2022-09-16T03:21:06;1.50;;;1.40;;
7191;SDS011;3637;51.494;11.958;2022-09-16T03:24:17;3.83;;;1.30;;
7191;SDS011;3637;51.494;11.958;2022-09-16T03:27:28;1.30;;;1.20;;
7191;SDS011;3637;51.494;11.958;2022-09-16T03:30:35;1.23;;;1.13;;
7191;SDS011;3637;51.494;11.958;2022-09-16T03:33:45;1.40;;;1.30;;
7191;SDS011;3637;51.494;11.958;2022-09-16T03:36:53;1.93;;;1.20;;
7191;SDS011;3637;51.494;11.958;2022-09-16T03:39:59;2.50;;;1.13;;
7191;SDS011;3637;51.494;11.958;2022-09-16T03:43:08;2.70;;;1.40;;
7191;SDS011;3637;51.494;11.958;2022-09-16T03:46:11;1.40;;;1.17;;
7191;SDS011;3637;51.494;11.958;2022-09-16T03:49:13;1.17;;;1.13;;
7191;SDS011;3637;51.494;11.958;2022-09-16T03:52:17;1.80;;;1.30;;
7191;SDS011;3637;51.494;11.958;2022-09-16T03:55:19;1.73;;;1.40;;
7191;SDS011;3637;51.494;11.958;2022-09-16T03:58:20;2.30;;;1.60;;
7191;SDS011;3637;51.494;11.958;2022-09-16T04:01:22;1.60;;;1.23;;
7191;SDS011;3637;51.494;11.958;2022-09-16T04:04:24;1.33;;;1.23;;
7191;SDS011;3637;51.494;11.958;2022-09-16T04:07:27;1.50;;;1.40;;
7191;SDS011;3637;51.494;11.958;2022-09-16T04:10:29;2.17;;;1.40;;
7191;SDS011;3637;51.494;11.958;2022-09-16T04:13:31;2.03;;;1.30;;
7191;SDS011;3637;51.494;11.958;2022-09-16T04:16:34;2.20;;;1.30;;
7191;SDS011;3637;51.494;11.958;2022-09-16T04:19:35;2.30;;;1.57;;
7191;SDS011;3637;51.494;11.958;2022-09-16T04:22:39;1.27;;;1.17;;
7191;SDS011;3637;51.494;11.958;2022-09-16T04:25:40;1.13;;;1.03;;
7191;SDS011;3637;51.494;11.958;2022-09-16T04:28:42;1.53;;;1.20;;
7191;SDS011;3637;51.494;11.958;2022-09-16T04:31:44;1.43;;;1.07;;
7191;SDS011;3637;51.494;11.958;2022-09-16T04:34:46;2.07;;;1.33;;
7191;SDS011;3637;51.494;11.958;2022-09-16T04:37:49;1.60;;;1.40;;
7191;SDS011;3637;51.494;11.958;2022-09-16T04:40:51;1.83;;;1.30;;
7191;SDS011;3637;51.494;11.958;2022-09-16T04:43:54;1.17;;;1.13;;
7191;SDS011;3637;51.494;11.958;2022-09-16T04:46:57;1.97;;;1.17;;
7191;SDS011;3637;51.494;11.958;2022-09-16T04:49:59;1.90;;;1.30;;
7191;SDS011;3637;51.494;11.958;2022-09-16T04:53:02;2.80;;;1.30;;
7191;SDS011;3637;51.494;11.958;2022-09-16T04:56:05;6.83;;;1.67;;
7191;SDS011;3637;51.494;11.958;2022-09-16T04:59:08;1.50;;;1.40;;
7191;SDS011;3637;51.494;11.958;2022-09-16T05:02:10;1.97;;;1.70;;
7191;SDS011;3637;51.494;11.958;2022-09-16T05:05:12;3.10;;;1.50;;
7191;SDS011;3637;51.494;11.958;2022-09-16T05:08:17;1.53;;;1.43;;
7191;SDS011;3637;51.494;11.958;2022-09-16T05:11:20;2.60;;;1.40;;
7191;SDS011;3637;51.494;11.958;2022-09-16T05:14:22;1.73;;;1.60;;
7191;SDS011;3637;51.494;11.958;2022-09-16T05:17:24;3.47;;;1.60;;
7191;SDS011;3637;51.494;11.958;2022-09-16T05:20:26;4.03;;;1.47;;
7191;SDS011;3637;51.494;11.958;2022-09-16T05:23:29;2.10;;;1.70;;
7191;SDS011;3637;51.494;11.958;2022-09-16T05:26:32;3.27;;;1.50;;
7191;SDS011;3637;51.494;11.958;2022-09-16T05:29:34;1.50;;;1.40;;
7191;SDS011;3637;51.494;11.958;2022-09-16T05:32:36;2.53;;;1.80;;
7191;SDS011;3637;51.494;11.958;2022-09-16T05:35:37;1.67;;;1.57;;
7191;SDS011;3637;51.494;11.958;2022-09-16T05:38:42;2.40;;;1.30;;
7191;SDS011;3637;51.494;11.958;2022-09-16T05:41:44;2.73;;;1.50;;
7191;SDS011;3637;51.494;11.958;2022-09-16T05:44:47;3.77;;;1.53;;
7191;SDS011;3637;51.494;11.958;2022-09-16T05:47:49;2.30;;;1.30;;
7191;SDS011;3637;51.494;11.958;2022-09-16T05:50:51;1.30;;;1.20;;
7191;SDS011;3637;51.494;11.958;2022-09-16T05:53:55;1.57;;;1.30;;
7191;SDS011;3637;51.494;11.958;2022-09-16T05:56:56;1.47;;;1.20;;
7191;SDS011;3637;51.494;11.958;2022-09-16T05:59:58;2.37;;;1.20;;
7191;SDS011;3637;51.494;11.958;2022-09-16T06:03:00;2.37;;;1.47;;
7191;SDS011;3637;51.494;11.958;2022-09-16T06:06:02;1.77;;;1.37;;
7191;SDS011;3637;51.494;11.958;2022-09-16T06:09:07;1.37;;;1.20;;
7191;SDS011;3637;51.494;11.958;2022-09-16T06:12:10;1.50;;;1.40;;
7191;SDS011;3637;51.494;11.958;2022-09-16T06:15:12;2.60;;;1.30;;
7191;SDS011;3637;51.494;11.958;2022-09-16T06:18:14;1.30;;;1.13;;
7191;SDS011;3637;51.494;11.958;2022-09-16T06:21:16;1.43;;;1.10;;
7191;SDS011;3637;51.494;11.958;2022-09-16T06:24:19;2.00;;;1.10;;
7191;SDS011;3637;51.494;11.958;2022-09-16T06:27:21;1.00;;;1.00;;
7191;SDS011;3637;51.494;11.958;2022-09-16T06:30:23;1.00;;;1.00;;
7191;SDS011;3637;51.494;11.958;2022-09-16T06:33:25;2.37;;;1.40;;
7191;SDS011;3637;51.494;11.958;2022-09-16T06:36:28;1.97;;;1.10;;
7191;SDS011;3637;51.494;11.958;2022-09-16T06:39:32;1.23;;;1.13;;
7191;SDS011;3637;51.494;11.958;2022-09-16T06:42:34;2.47;;;1.23;;
7191;SDS011;3637;51.494;11.958;2022-09-16T06:45:36;1.20;;;1.10;;
7191;SDS011;3637;51.494;11.958;2022-09-16T06:48:38;1.90;;;1.23;;
7191;SDS011;3637;51.494;11.958;2022-09-16T06:51:41;3.13;;;1.40;;
7191;SDS011;3637;51.494;11.958;2022-09-16T06:54:44;2.63;;;1.20;;
7191;SDS011;3637;51.494;11.958;2022-09-16T06:57:47;2.60;;;1.17;;
7191;SDS011;3637;51.494;11.958;2022-09-16T07:00:48;1.10;;;1.10;;
7191;SDS011;3637;51.494;11.958;2022-09-16T07:03:51;1.47;;;1.20;;
7191;SDS011;3637;51.494;11.958;2022-09-16T07:06:53;1.23;;;1.13;;
7191;SDS011;3637;51.494;11.958;2022-09-16T07:09:58;1.43;;;1.30;;
7191;SDS011;3637;51.494;11.958;2022-09-16T07:12:59;2.37;;;1.20;;
7191;SDS011;3637;51.494;11.958;2022-09-16T07:16:02;3.80;;;1.27;;
7191;SDS011;3637;51.494;11.958;2022-09-16T07:19:05;1.40;;;1.30;;
7191;SDS011;3637;51.494;11.958;2022-09-16T07:22:07;1.13;;;1.13;;
7191;SDS011;3637;51.494;11.958;2022-09-16T07:25:11;1.33;;;1.23;;
7191;SDS011;3637;51.494;11.958;2022-09-16T07:28:13;1.23;;;1.10;;
7191;SDS011;3637;51.494;11.958;2022-09-16T07:31:16;1.30;;;1.20;;
7191;SDS011;3637;51.494;11.958;2022-09-16T07:34:18;1.50;;;1.40;;
7191;SDS011;3637;51.494;11.958;2022-09-16T07:37:20;1.20;;;1.10;;
7191;SDS011;3637;51.494;11.958;2022-09-16T07:40:23;1.47;;;1.37;;
7191;SDS011;3637;51.494;11.958;2022-09-16T07:43:25;2.13;;;1.17;;
7191;SDS011;3637;51.494;11.958;2022-09-16T07:46:28;1.50;;;1.40;;
7191;SDS011;3637;51.494;11.958;2022-09-16T07:49:31;1.77;;;1.40;;
7191;SDS011;3637;51.494;11.958;2022-09-16T07:52:33;1.50;;;1.37;;
7191;SDS011;3637;51.494;11.958;2022-09-16T07:55:36;2.07;;;1.60;;
7191;SDS011;3637;51.494;11.958;2022-09-16T07:58:38;3.10;;;1.40;;
7191;SDS011;3637;51.494;11.958;2022-09-16T08:01:40;2.23;;;1.50;;
7191;SDS011;3637;51.494;11.958;2022-09-16T08:04:42;2.77;;;1.40;;
7191;SDS011;3637;51.494;11.958;2022-09-16T08:07:44;2.07;;;1.63;;
7191;SDS011;3637;51.494;11.958;2022-09-16T08:10:52;2.00;;;1.47;;
7191;SDS011;3637;51.494;11.958;2022-09-16T08:13:56;1.50;;;1.40;;
7191;SDS011;3637;51.494;11.958;2022-09-16T08:16:58;2.37;;;1.60;;
7191;SDS011;3637;51.494;11.958;2022-09-16T08:20:01;1.70;;;1.50;;
7191;SDS011;3637;51.494;11.958;2022-09-16T08:23:05;4.10;;;1.63;;
7191;SDS011;3637;51.494;11.958;2022-09-16T08:26:09;2.03;;;1.53;;
7191;SDS011;3637;51.494;11.958;2022-09-16T08:29:12;2.00;;;1.60;;
7191;SDS011;3637;51.494;11.958;2022-09-16T08:32:14;2.53;;;1.57;;
7191;SDS011;3637;51.494;11.958;2022-09-16T08:35:16;1.57;;;1.47;;
7191;SDS011;3637;51.494;11.958;2022-09-16T08:38:19;2.87;;;1.50;;
7191;SDS011;3637;51.494;11.958;2022-09-16T08:41:25;1.80;;;1.30;;
7191;SDS011;3637;51.494;11.958;2022-09-16T08:44:37;1.97;;;1.30;;
7191;SDS011;3637;51.494;11.958;2022-09-16T08:47:47;1.50;;;1.23;;
7191;SDS011;3637;51.494;11.958;2022-09-16T08:51:02;2.10;;;1.50;;
7191;SDS011;3637;51.494;11.958;2022-09-16T08:54:05;2.83;;;1.40;;
7191;SDS011;3637;51.494;11.958;2022-09-16T08:57:15;2.30;;;1.30;;
7191;SDS011;3637;51.494;11.958;2022-09-16T09:00:20;1.47;;;1.37;;
7191;SDS011;3637;51.494;11.958;2022-09-16T09:03:26;2.40;;;1.50;;
7191;SDS011;3637;51.494;11.958;2022-09-16T09:06:40;1.60;;;1.33;;
7191;SDS011;3637;51.494;11.958;2022-09-16T09:09:53;1.53;;;1.40;;
7191;SDS011;3637;51.494;11.958;2022-09-16T09:13:06;3.60;;;1.50;;
7191;SDS011;3637;51.494;11.958;2022-09-16T09:16:15;1.40;;;1.30;;
7191;SDS011;3637;51.494;11.958;2022-09-16T09:19:28;1.40;;;1.30;;
7191;SDS011;3637;51.494;11.958;2022-09-16T09:22:45;1.40;;;1.30;;
7191;SDS011;3637;51.494;11.958;2022-09-16T09:26:03;1.67;;;1.57;;
7191;SDS011;3637;51.494;11.958;2022-09-16T09:29:13;1.60;;;1.40;;
7191;SDS011;3637;51.494;11.958;2022-09-16T09:32:33;1.63;;;1.40;;
7191;SDS011;3637;51.494;11.958;2022-09-16T09:35:46;1.67;;;1.57;;
7191;SDS011;3637;51.494;11.958;2022-09-16T09:39:02;1.50;;;1.40;;
7191;SDS011;3637;51.494;11.958;2022-09-16T09:42:22;1.57;;;1.47;;
7191;SDS011;3637;51.494;11.958;2022-09-16T09:45:30;0.93;;;0.93;;
7191;SDS011;3637;51.494;11.958;2022-09-16T09:48:36;1.67;;;1.50;;
7191;SDS011;3637;51.494;11.958;2022-09-16T09:51:40;3.17;;;1.50;;
7191;SDS011;3637;51.494;11.958;2022-09-16T09:54:46;1.30;;;1.20;;
7191;SDS011;3637;51.494;11.958;2022-09-16T09:57:54;2.07;;;1.40;;
7191;SDS011;3637;51.494;11.958;2022-09-16T10:01:02;1.30;;;1.20;;
7191;SDS011;3637;51.494;11.958;2022-09-16T10:04:07;0.90;;;0.90;;
7191;SDS011;3637;51.494;11.958;2022-09-16T10:07:12;1.67;;;1.10;;
7191;SDS011;3637;51.494;11.958;2022-09-16T10:10:16;2.20;;;1.40;;
7191;SDS011;3637;51.494;11.958;2022-09-16T10:13:21;2.00;;;1.10;;
7191;SDS011;3637;51.494;11.958;2022-09-16T10:16:27;1.20;;;1.10;;
7191;SDS011;3637;51.494;11.958;2022-09-16T10:19:33;1.03;;;1.03;;
7191;SDS011;3637;51.494;11.958;2022-09-16T10:22:39;2.60;;;1.40;;
7191;SDS011;3637;51.494;11.958;2022-09-16T10:25:41;1.53;;;1.20;;
7191;SDS011;3637;51.494;11.958;2022-09-16T10:28:52;1.27;;;1.17;;
7191;SDS011;3637;51.494;11.958;2022-09-16T10:32:00;1.07;;;1.00;;
7191;SDS011;3637;51.494;11.958;2022-09-16T10:35:06;1.17;;;1.10;;
7191;SDS011;3637;51.494;11.958;2022-09-16T10:38:12;1.20;;;1.10;;
7191;SDS011;3637;51.494;11.958;2022-09-16T10:41:20;4.23;;;1.10;;
7191;SDS011;3637;51.494;11.958;2022-09-16T10:44:24;0.80;;;0.80;;
7191;SDS011;3637;51.494;11.958;2022-09-16T10:47:30;1.10;;;1.00;;
7191;SDS011;3637;51.494;11.958;2022-09-16T10:50:35;0.80;;;0.80;;
7191;SDS011;3637;51.494;11.958;2022-09-16T10:53:37;1.37;;;1.00;;
7191;SDS011;3637;51.494;11.958;2022-09-16T10:56:45;2.20;;;1.10;;
7191;SDS011;3637;51.494;11.958;2022-09-16T10:59:57;1.17;;;0.97;;
7191;SDS011;3637;51.494;11.958;2022-09-16T11:03:16;1.63;;;1.20;;
7191;SDS011;3637;51.494;11.958;2022-09-16T11:06:50;1.60;;;1.40;;
7191;SDS011;3637;51.494;11.958;2022-09-16T11:10:02;0.97;;;0.93;;
7191;SDS011;3637;51.494;11.958;2022-09-16T11:13:19;1.20;;;1.10;;
7191;SDS011;3637;51.494;11.958;2022-09-16T11:16:30;1.40;;;1.07;;
7191;SDS011;3637;51.494;11.958;2022-09-16T11:19:53;1.07;;;1.07;;
7191;SDS011;3637;51.494;11.958;2022-09-16T11:23:07;0.90;;;0.90;;
7191;SDS011;3637;51.494;11.958;2022-09-16T11:26:22;1.07;;;0.90;;
7191;SDS011;3637;51.494;11.958;2022-09-16T11:29:39;1.20;;;1.10;;
7191;SDS011;3637;51.494;11.958;2022-09-16T11:32:56;1.17;;;1.07;;
7191;SDS011;3637;51.494;11.958;2022-09-16T11:36:15;0.77;;;0.77;;
7191;SDS011;3637;51.494;11.958;2022-09-16T11:39:33;0.97;;;0.97;;
7191;SDS011;3637;51.494;11.958;2022-09-16T11:42:45;1.27;;;1.00;;
7191;SDS011;3637;51.494;11.958;2022-09-16T11:45:55;0.90;;;0.90;;
7191;SDS011;3637;51.494;11.958;2022-09-16T11:49:07;0.70;;;0.70;;
7191;SDS011;3637;51.494;11.958;2022-09-16T11:52:24;1.47;;;0.80;;
7191;SDS011;3637;51.494;11.958;2022-09-16T11:55:36;0.93;;;0.80;;
7191;SDS011;3637;51.494;11.958;2022-09-16T11:58:47;0.67;;;0.67;;
7191;SDS011;3637;51.494;11.958;2022-09-16T12:01:52;0.80;;;0.80;;
7191;SDS011;3637;51.494;11.958;2022-09-16T12:05:02;0.80;;;0.80;;
7191;SDS011;3637;51.494;11.958;2022-09-16T12:08:15;1.13;;;0.60;;
7191;SDS011;3637;51.494;11.958;2022-09-16T12:11:23;0.73;;;0.70;;
7191;SDS011;3637;51.494;11.958;2022-09-16T12:14:33;1.97;;;0.93;;
7191;SDS011;3637;51.494;11.958;2022-09-16T12:17:38;1.30;;;0.80;;
7191;SDS011;3637;51.494;11.958;2022-09-16T12:20:43;3.40;;;1.10;;
7191;SDS011;3637;51.494;11.958;2022-09-16T12:23:49;0.83;;;0.83;;
7191;SDS011;3637;51.494;11.958;2022-09-16T12:26:58;1.50;;;1.07;;
7191;SDS011;3637;51.494;11.958;2022-09-16T12:30:05;0.80;;;0.80;;
7191;SDS011;3637;51.494;11.958;2022-09-16T12:33:15;0.80;;;0.80;;
7191;SDS011;3637;51.494;11.958;2022-09-16T12:36:22;0.70;;;0.70;;
7191;SDS011;3637;51.494;11.958;2022-09-16T12:39:29;0.93;;;0.90;;
7191;SDS011;3637;51.494;11.958;2022-09-16T12:42:46;2.50;;;1.00;;
7191;SDS011;3637;51.494;11.958;2022-09-16T12:46:23;1.10;;;1.00;;
7191;SDS011;3637;51.494;11.958;2022-09-16T12:49:59;1.53;;;1.00;;
7191;SDS011;3637;51.494;11.958;2022-09-16T12:57:08;2.27;;;1.10;;
7191;SDS011;3637;51.494;11.958;2022-09-16T13:00:22;1.33;;;1.07;;
7191;SDS011;3637;51.494;11.958;2022-09-16T13:03:27;1.43;;;1.10;;
7191;SDS011;3637;51.494;11.958;2022-09-16T13:06:32;1.97;;;1.20;;
7191;SDS011;3637;51.494;11.958;2022-09-16T13:09:37;2.37;;;1.10;;
7191;SDS011;3637;51.494;11.958;2022-09-16T13:12:42;0.97;;;0.97;;
7191;SDS011;3637;51.494;11.958;2022-09-16T13:15:54;1.23;;;1.13;;
7191;SDS011;3637;51.494;11.958;2022-09-16T13:22:25;1.07;;;0.97;;
7191;SDS011;3637;51.494;11.958;2022-09-16T13:25:31;1.20;;;1.10;;
7191;SDS011;3637;51.494;11.958;2022-09-16T13:28:44;1.20;;;1.10;;
7191;SDS011;3637;51.494;11.958;2022-09-16T13:31:49;2.97;;;1.20;;
7191;SDS011;3637;51.494;11.958;2022-09-16T13:35:01;2.53;;;1.40;;
7191;SDS011;3637;51.494;11.958;2022-09-16T13:38:19;0.90;;;0.90;;
7191;SDS011;3637;51.494;11.958;2022-09-16T13:41:27;1.03;;;1.03;;
7191;SDS011;3637;51.494;11.958;2022-09-16T13:44:40;0.80;;;0.80;;
7191;SDS011;3637;51.494;11.958;2022-09-16T13:47:46;0.80;;;0.80;;
7191;SDS011;3637;51.494;11.958;2022-09-16T13:50:49;1.00;;;1.00;;
7191;SDS011;3637;51.494;11.958;2022-09-16T13:53:54;1.53;;;0.90;;
7191;SDS011;3637;51.494;11.958;2022-09-16T13:57:02;1.33;;;1.00;;
7191;SDS011;3637;51.494;11.958;2022-09-16T14:00:22;0.87;;;0.87;;
7191;SDS011;3637;51.494;11.958;2022-09-16T14:03:32;1.10;;;1.00;;
7191;SDS011;3637;51.494;11.958;2022-09-16T14:10:15;2.00;;;0.90;;
7191;SDS011;3637;51.494;11.958;2022-09-16T14:13:22;0.90;;;0.90;;
7191;SDS011;3637;51.494;11.958;2022-09-16T14:16:26;1.33;;;1.10;;
7191;SDS011;3637;51.494;11.958;2022-09-16T14:19:31;1.97;;;0.80;;
7191;SDS011;3637;51.494;11.958;2022-09-16T14:22:36;1.43;;;1.10;;
7191;SDS011;3637;51.494;11.958;2022-09-16T14:25:43;1.10;;;1.00;;
7191;SDS011;3637;51.494;11.958;2022-09-16T14:28:45;1.57;;;0.97;;
7191;SDS011;3637;51.494;11.958;2022-09-16T14:31:49;1.00;;;0.90;;
7191;SDS011;3637;51.494;11.958;2022-09-16T14:34:53;2.63;;;1.00;;
7191;SDS011;3637;51.494;11.958;2022-09-16T14:37:59;1.33;;;1.00;;
7191;SDS011;3637;51.494;11.958;2022-09-16T14:41:04;1.97;;;0.97;;
7191;SDS011;3637;51.494;11.958;2022-09-16T14:44:07;3.80;;;1.20;;
7191;SDS011;3637;51.494;11.958;2022-09-16T14:47:17;0.90;;;0.80;;
7191;SDS011;3637;51.494;11.958;2022-09-16T14:50:25;0.73;;;0.73;;
7191;SDS011;3637;51.494;11.958;2022-09-16T14:53:30;1.83;;;1.20;;
7191;SDS011;3637;51.494;11.958;2022-09-16T14:56:35;1.07;;;0.93;;
7191;SDS011;3637;51.494;11.958;2022-09-16T14:59:37;1.00;;;0.90;;
7191;SDS011;3637;51.494;11.958;2022-09-16T15:02:42;1.20;;;1.00;;
7191;SDS011;3637;51.494;11.958;2022-09-16T15:05:48;0.80;;;0.70;;
7191;SDS011;3637;51.494;11.958;2022-09-16T15:08:54;6.10;;;1.03;;
7191;SDS011;3637;51.494;11.958;2022-09-16T15:11:59;0.97;;;0.97;;
7191;SDS011;3637;51.494;11.958;2022-09-16T15:15:02;3.60;;;0.90;;
7191;SDS011;3637;51.494;11.958;2022-09-16T15:18:08;2.50;;;0.93;;
7191;SDS011;3637;51.494;11.958;2022-09-16T15:21:20;0.97;;;0.90;;
7191;SDS011;3637;51.494;11.958;2022-09-16T15:24:26;1.00;;;1.00;;
7191;SDS011;3637;51.494;11.958;2022-09-16T15:27:30;2.37;;;1.10;;
7191;SDS011;3637;51.494;11.958;2022-09-16T15:30:32;1.43;;;1.07;;
7191;SDS011;3637;51.494;11.958;2022-09-16T15:33:38;2.27;;;1.00;;
7191;SDS011;3637;51.494;11.958;2022-09-16T15:36:41;2.67;;;1.13;;
7191;SDS011;3637;51.494;11.958;2022-09-16T15:39:43;2.17;;;1.20;;
7191;SDS011;3637;51.494;11.958;2022-09-16T15:42:45;1.10;;;0.73;;
7191;SDS011;3637;51.494;11.958;2022-09-16T15:45:56;2.30;;;1.20;;
7191;SDS011;3637;51.494;11.958;2022-09-16T15:49:00;1.47;;;0.90;;
7191;SDS011;3637;51.494;11.958;2022-09-16T15:52:04;1.23;;;1.00;;
7191;SDS011;3637;51.494;11.958;2022-09-16T15:55:10;2.17;;;1.07;;
7191;SDS011;3637;51.494;11.958;2022-09-16T15:58:13;1.90;;;0.83;;
7191;SDS011;3637;51.494;11.958;2022-09-16T16:01:19;1.47;;;0.93;;
7191;SDS011;3637;51.494;11.958;2022-09-16T16:04:37;0.80;;;0.80;;
7191;SDS011;3637;51.494;11.958;2022-09-16T16:07:40;2.10;;;1.30;;
7191;SDS011;3637;51.494;11.958;2022-09-16T16:10:43;0.90;;;0.80;;
7191;SDS011;3637;51.494;11.958;2022-09-16T16:14:09;4.47;;;1.03;;
7191;SDS011;3637;51.494;11.958;2022-09-16T16:17:14;1.40;;;1.10;;
7191;SDS011;3637;51.494;11.958;2022-09-16T16:20:20;3.30;;;1.27;;
7191;SDS011;3637;51.494;11.958;2022-09-16T16:23:21;1.00;;;1.00;;
7191;SDS011;3637;51.494;11.958;2022-09-16T16:26:23;2.63;;;1.07;;
7191;SDS011;3637;51.494;11.958;2022-09-16T16:29:25;1.77;;;1.13;;
7191;SDS011;3637;51.494;11.958;2022-09-16T16:32:27;2.77;;;0.90;;
7191;SDS011;3637;51.494;11.958;2022-09-16T16:35:31;1.47;;;1.07;;
7191;SDS011;3637;51.494;11.958;2022-09-16T16:38:33;0.80;;;0.80;;
7191;SDS011;3637;51.494;11.958;2022-09-16T16:41:34;1.30;;;1.00;;
7191;SDS011;3637;51.494;11.958;2022-09-16T16:44:36;1.60;;;0.90;;
7191;SDS011;3637;51.494;11.958;2022-09-16T16:47:38;1.83;;;1.20;;
7191;SDS011;3637;51.494;11.958;2022-09-16T16:50:41;3.73;;;1.10;;
7191;SDS011;3637;51.494;11.958;2022-09-16T16:53:45;1.27;;;0.90;;
7191;SDS011;3637;51.494;11.958;2022-09-16T16:56:48;1.70;;;0.90;;
7191;SDS011;3637;51.494;11.958;2022-09-16T16:59:50;2.00;;;1.03;;
7191;SDS011;3637;51.494;11.958;2022-09-16T17:02:52;1.03;;;1.03;;
7191;SDS011;3637;51.494;11.958;2022-09-16T17:05:55;1.37;;;1.13;;
7191;SDS011;3637;51.494;11.958;2022-09-16T17:08:56;1.00;;;0.90;;
7191;SDS011;3637;51.494;11.958;2022-09-16T17:11:59;3.33;;;1.10;;
7191;SDS011;3637;51.494;11.958;2022-09-16T17:15:03;0.70;;;0.70;;
7191;SDS011;3637;51.494;11.958;2022-09-16T17:18:05;1.10;;;1.00;;
7191;SDS011;3637;51.494;11.958;2022-09-16T17:21:09;0.80;;;0.80;;
7191;SDS011;3637;51.494;11.958;2022-09-16T17:24:11;0.90;;;0.90;;
7191;SDS011;3637;51.494;11.958;2022-09-16T17:27:14;0.90;;;0.90;;
7191;SDS011;3637;51.494;11.958;2022-09-16T17:30:18;0.90;;;0.90;;
7191;SDS011;3637;51.494;11.958;2022-09-16T17:33:20;0.90;;;0.90;;
7191;SDS011;3637;51.494;11.958;2022-09-16T17:36:23;1.07;;;0.97;;
7191;SDS011;3637;51.494;11.958;2022-09-16T17:39:25;1.20;;;1.00;;
7191;SDS011;3637;51.494;11.958;2022-09-16T17:42:27;0.80;;;0.80;;
7191;SDS011;3637;51.494;11.958;2022-09-16T17:45:30;2.40;;;1.10;;
7191;SDS011;3637;51.494;11.958;2022-09-16T17:48:32;2.00;;;1.10;;
7191;SDS011;3637;51.494;11.958;2022-09-16T17:51:36;0.73;;;0.70;;
7191;SDS011;3637;51.494;11.958;2022-09-16T17:54:38;2.50;;;0.93;;
7191;SDS011;3637;51.494;11.958;2022-09-16T17:57:41;0.70;;;0.70;;
7191;SDS011;3637;51.494;11.958;2022-09-16T18:00:42;1.43;;;1.10;;
7191;SDS011;3637;51.494;11.958;2022-09-16T18:03:45;2.17;;;1.20;;
7191;SDS011;3637;51.494;11.958;2022-09-16T18:06:50;1.13;;;0.73;;
7191;SDS011;3637;51.494;11.958;2022-09-16T18:09:51;0.80;;;0.80;;
7191;SDS011;3637;51.494;11.958;2022-09-16T18:12:53;1.17;;;0.93;;
7191;SDS011;3637;51.494;11.958;2022-09-16T18:16:00;0.70;;;0.70;;
7191;SDS011;3637;51.494;11.958;2022-09-16T18:19:03;1.10;;;1.00;;
7191;SDS011;3637;51.494;11.958;2022-09-16T18:22:06;1.10;;;1.00;;
7191;SDS011;3637;51.494;11.958;2022-09-16T18:25:08;2.43;;;1.10;;
7191;SDS011;3637;51.494;11.958;2022-09-16T18:28:10;1.23;;;1.07;;
7191;SDS011;3637;51.494;11.958;2022-09-16T18:31:12;1.57;;;1.10;;
7191;SDS011;3637;51.494;11.958;2022-09-16T18:34:15;1.10;;;1.00;;
7191;SDS011;3637;51.494;11.958;2022-09-16T18:37:19;1.10;;;1.00;;
7191;SDS011;3637;51.494;11.958;2022-09-16T18:40:21;1.07;;;0.80;;
7191;SDS011;3637;51.494;11.958;2022-09-16T18:43:22;4.03;;;1.30;;
7191;SDS011;3637;51.494;11.958;2022-09-16T18:46:25;2.40;;;1.13;;
7191;SDS011;3637;51.494;11.958;2022-09-16T18:49:28;1.47;;;1.20;;
7191;SDS011;3637;51.494;11.958;2022-09-16T18:52:31;2.63;;;1.20;;
7191;SDS011;3637;51.494;11.958;2022-09-16T18:55:33;0.83;;;0.83;;
7191;SDS011;3637;51.494;11.958;2022-09-16T18:58:34;1.27;;;1.20;;
7191;SDS011;3637;51.494;11.958;2022-09-16T19:01:36;1.30;;;1.20;;
7191;SDS011;3637;51.494;11.958;2022-09-16T19:04:40;1.30;;;0.80;;
7191;SDS011;3637;51.494;11.958;2022-09-16T19:07:44;0.87;;;0.80;;
7191;SDS011;3637;51.494;11.958;2022-09-16T19:10:46;1.30;;;1.00;;